createdAt,value
2023-04-18T00:00:33.676Z,8.17
2023-04-18T00:03:18.747Z,8.13
2023-04-18T00:06:04.032Z,8.05
2023-04-18T00:08:49.044Z,8.05
2023-04-18T00:11:33.952Z,7.98
2023-04-18T00:14:18.976Z,7.98
2023-04-18T00:17:03.952Z,7.94
2023-04-18T00:19:48.993Z,7.89
2023-04-18T00:22:33.888Z,7.85
2023-04-18T00:25:18.872Z,7.80
2023-04-18T00:28:03.796Z,7.74
2023-04-18T00:30:48.849Z,7.60
2023-04-18T00:33:33.877Z,7.56
2023-04-18T00:36:18.807Z,7.53
2023-04-18T00:39:03.939Z,7.54
2023-04-18T00:41:48.801Z,7.48
2023-04-18T00:44:33.687Z,7.42
2023-04-18T00:47:18.496Z,7.40
2023-04-18T00:52:52.107Z,7.31
2023-04-18T00:55:37.014Z,7.29
2023-04-18T00:58:22.026Z,7.32
2023-04-18T01:01:06.778Z,7.26
2023-04-18T01:03:51.849Z,7.20
2023-04-18T01:06:36.839Z,7.19
2023-04-18T01:09:22.171Z,7.15
2023-04-18T01:12:07.214Z,7.13
2023-04-18T01:14:52.115Z,7.11
2023-04-18T01:17:37.122Z,7.12
2023-04-18T01:20:21.936Z,7.06
2023-04-18T01:23:06.942Z,7.01
2023-04-18T01:25:52.029Z,6.97
2023-04-18T01:28:36.982Z,6.94
2023-04-18T01:31:21.851Z,7.02
2023-04-18T01:34:06.853Z,6.98
2023-04-18T01:36:51.957Z,7.02
2023-04-18T01:39:36.746Z,6.99
2023-04-18T01:42:21.716Z,7.01
2023-04-18T01:45:06.553Z,7.00
2023-04-18T01:47:51.515Z,6.93
2023-04-18T01:50:36.493Z,6.92
2023-04-18T01:53:21.401Z,6.98
2023-04-18T01:56:06.562Z,6.90
2023-04-18T01:58:51.393Z,6.94
2023-04-18T02:01:36.448Z,6.90
2023-04-18T02:04:21.502Z,6.91
2023-04-18T02:07:06.334Z,6.93
2023-04-18T02:09:51.074Z,6.82
2023-04-18T02:12:36.137Z,6.73
2023-04-18T02:15:21.095Z,6.71
2023-04-18T02:18:06.207Z,6.70
2023-04-18T02:20:51.319Z,6.66
2023-04-18T02:23:36.173Z,6.66
2023-04-18T02:26:21.222Z,6.71
2023-04-18T02:29:06.087Z,6.72
2023-04-18T02:31:51.169Z,6.69
2023-04-18T02:34:35.889Z,6.68
2023-04-18T02:37:21.013Z,6.67
2023-04-18T02:40:06.020Z,6.56
2023-04-18T02:42:51.062Z,6.57
2023-04-18T02:45:36.063Z,6.55
2023-04-18T02:48:21.079Z,6.51
2023-04-18T02:51:06.076Z,6.43
2023-04-18T02:53:51.044Z,6.40
2023-04-18T02:56:35.994Z,6.33
2023-04-18T02:59:20.970Z,6.32
2023-04-18T03:02:06.045Z,6.33
2023-04-18T03:04:51.037Z,6.33
2023-04-18T03:07:35.837Z,6.27
2023-04-18T03:10:20.893Z,6.28
2023-04-18T03:13:05.769Z,6.28
2023-04-18T03:15:50.752Z,6.21
2023-04-18T03:18:35.596Z,6.18
2023-04-18T03:21:20.747Z,6.18
2023-04-18T03:24:05.851Z,6.18
2023-04-18T03:26:50.974Z,6.13
2023-04-18T03:29:36.030Z,6.07
2023-04-18T03:32:20.916Z,6.01
2023-04-18T03:35:05.942Z,5.97
2023-04-18T03:37:50.873Z,5.90
2023-04-18T03:40:35.842Z,5.97
2023-04-18T03:43:20.644Z,6.03
2023-04-18T03:46:05.732Z,5.99
2023-04-18T03:48:50.732Z,5.94
2023-04-18T03:51:35.653Z,5.92
2023-04-18T03:54:20.684Z,5.89
2023-04-18T03:57:05.629Z,5.91
2023-04-18T03:59:50.684Z,5.93
2023-04-18T04:02:35.642Z,5.87
2023-04-18T04:05:20.420Z,5.74
2023-04-18T04:08:05.360Z,5.73
2023-04-18T04:10:50.375Z,5.73
2023-04-18T04:13:35.366Z,5.74
2023-04-18T04:16:20.369Z,5.67
2023-04-18T04:19:05.374Z,5.60
2023-04-18T04:21:50.388Z,5.60
2023-04-18T04:24:35.301Z,5.62
2023-04-18T04:27:20.051Z,5.68
2023-04-18T04:30:04.892Z,5.61
2023-04-18T04:32:49.833Z,5.56
2023-04-18T04:35:34.835Z,5.65
2023-04-18T04:38:19.908Z,5.63
2023-04-18T04:41:04.895Z,5.58
2023-04-18T04:43:50.038Z,5.58
2023-04-18T04:46:34.907Z,5.61
2023-04-18T04:49:19.969Z,5.55
2023-04-18T04:52:04.822Z,5.54
2023-04-18T04:54:49.683Z,5.50
2023-04-18T04:57:34.541Z,5.49
2023-04-18T05:00:19.620Z,5.49
2023-04-18T05:03:04.826Z,5.47
2023-04-18T05:05:49.617Z,5.49
2023-04-18T05:08:34.658Z,5.41
2023-04-18T05:11:19.630Z,5.40
2023-04-18T05:14:04.692Z,5.37
2023-04-18T05:16:49.524Z,5.34
2023-04-18T05:19:34.523Z,5.35
2023-04-18T05:22:19.527Z,5.29
2023-04-18T05:25:04.575Z,5.29
2023-04-18T05:27:49.682Z,5.25
2023-04-18T05:30:34.550Z,5.24
2023-04-18T05:33:19.619Z,5.25
2023-04-18T05:36:04.692Z,5.30
2023-04-18T05:38:51.274Z,5.29
2023-04-18T05:41:36.363Z,5.33
2023-04-18T05:44:21.284Z,5.38
2023-04-18T05:47:06.796Z,5.38
2023-04-18T05:49:51.554Z,5.37
2023-04-18T05:52:36.611Z,5.39
2023-04-18T05:55:21.368Z,5.44
2023-04-18T05:58:06.292Z,5.55
2023-04-18T06:00:51.229Z,5.66
2023-04-18T06:03:36.209Z,5.82
2023-04-18T06:06:21.265Z,5.87
2023-04-18T06:09:06.163Z,6.09
2023-04-18T06:11:51.181Z,6.28
2023-04-18T06:14:36.067Z,6.38
2023-04-18T06:17:21.356Z,6.41
2023-04-18T06:20:06.276Z,6.58
2023-04-18T06:22:51.132Z,6.60
2023-04-18T06:25:36.145Z,6.68
2023-04-18T06:28:21.157Z,6.83
2023-04-18T06:31:06.332Z,6.89
2023-04-18T06:33:51.186Z,6.96
2023-04-18T06:36:36.199Z,6.92
2023-04-18T06:39:21.107Z,7.11
2023-04-18T06:42:06.038Z,7.27
2023-04-18T06:44:50.806Z,7.16
2023-04-18T06:47:35.813Z,7.37
2023-04-18T06:50:20.748Z,7.28
2023-04-18T06:53:05.752Z,7.40
2023-04-18T06:55:50.740Z,7.56
2023-04-18T06:58:35.728Z,7.74
2023-04-18T07:01:20.708Z,7.75
2023-04-18T07:04:05.663Z,7.74
2023-04-18T07:06:50.494Z,7.61
2023-04-18T07:09:35.564Z,7.77
2023-04-18T07:12:20.536Z,7.78
2023-04-18T07:15:05.617Z,8.08
2023-04-18T07:17:50.599Z,8.07
2023-04-18T07:20:35.716Z,8.17
2023-04-18T07:23:20.573Z,8.17
2023-04-18T07:26:05.855Z,8.59
2023-04-18T07:28:50.585Z,8.50
2023-04-18T07:31:35.664Z,8.71
2023-04-18T07:34:20.596Z,8.79
2023-04-18T07:37:05.700Z,8.82
2023-04-18T07:39:50.863Z,8.77
2023-04-18T07:42:35.779Z,8.89
2023-04-18T07:45:20.863Z,8.94
2023-04-18T07:48:05.665Z,8.74
2023-04-18T07:50:50.594Z,9.10
2023-04-18T07:53:35.557Z,8.85
2023-04-18T07:56:20.461Z,9.08
2023-04-18T07:59:05.356Z,9.35
2023-04-18T08:01:50.373Z,9.75
2023-04-18T08:04:35.834Z,9.70
2023-04-18T08:07:21.001Z,9.78
2023-04-18T08:10:06.130Z,9.61
2023-04-18T08:12:51.020Z,10.19
2023-04-18T08:15:36.169Z,10.15
2023-04-18T08:18:21.274Z,9.99
2023-04-18T08:21:07.712Z,10.31
2023-04-18T08:23:52.915Z,10.83
2023-04-18T08:26:37.892Z,11.08
2023-04-18T08:29:22.824Z,10.92
2023-04-18T08:32:07.937Z,10.95
2023-04-18T08:34:52.664Z,11.29
2023-04-18T08:37:37.611Z,11.43
2023-04-18T08:40:22.529Z,11.53
2023-04-18T08:43:07.523Z,11.43
2023-04-18T08:45:53.867Z,11.79
2023-04-18T08:48:38.575Z,11.69
2023-04-18T08:51:23.481Z,11.41
2023-04-18T08:54:08.663Z,11.62
2023-04-18T08:56:53.734Z,11.59
2023-04-18T08:59:38.742Z,11.57
2023-04-18T09:02:23.959Z,11.61
2023-04-18T09:05:08.785Z,12.00
2023-04-18T09:07:53.657Z,11.90
2023-04-18T09:10:38.572Z,11.95
2023-04-18T09:13:24.613Z,12.11
2023-04-18T09:16:09.560Z,12.31
2023-04-18T09:18:54.354Z,11.97
2023-04-18T09:21:39.345Z,12.07
2023-04-18T09:24:24.460Z,12.35
2023-04-18T09:27:09.108Z,12.29
2023-04-18T09:29:54.693Z,12.63
2023-04-18T09:32:40.930Z,12.59
2023-04-18T09:35:25.844Z,12.69
2023-04-18T09:38:10.698Z,12.68
2023-04-18T09:40:55.600Z,12.63
2023-04-18T09:43:40.514Z,12.88
2023-04-18T09:46:25.422Z,12.92
2023-04-18T09:49:11.091Z,13.17
2023-04-18T09:51:56.338Z,13.10
2023-04-18T09:54:41.206Z,13.27
2023-04-18T09:57:26.097Z,13.37
2023-04-18T10:00:11.167Z,13.42
2023-04-18T10:02:56.157Z,13.42
2023-04-18T10:05:41.320Z,13.68
2023-04-18T10:08:26.213Z,13.35
2023-04-18T10:11:11.079Z,13.83
2023-04-18T10:13:56.040Z,13.73
2023-04-18T10:16:41.348Z,13.87
2023-04-18T10:19:28.648Z,13.97
2023-04-18T10:22:13.516Z,14.22
2023-04-18T10:24:58.443Z,14.37
2023-04-18T10:27:43.212Z,14.70
2023-04-18T10:30:27.901Z,14.42
2023-04-18T10:33:21.860Z,14.07
2023-04-18T10:36:13.417Z,14.08
2023-04-18T10:38:58.319Z,14.09
2023-04-18T10:41:43.275Z,14.21
2023-04-18T10:44:28.423Z,13.93
2023-04-18T10:47:13.446Z,13.86
2023-04-18T10:49:58.454Z,14.05
2023-04-18T10:52:43.225Z,14.18
2023-04-18T10:55:28.383Z,14.22
2023-04-18T10:58:13.368Z,14.05
2023-04-18T11:00:58.400Z,13.99
2023-04-18T11:03:43.571Z,14.00
2023-04-18T11:06:30.524Z,14.17
2023-04-18T11:09:15.591Z,13.75
2023-04-18T11:12:00.501Z,14.20
2023-04-18T11:14:45.450Z,14.57
2023-04-18T11:17:30.557Z,14.87
2023-04-18T11:20:15.351Z,14.71
2023-04-18T11:23:00.423Z,14.27
2023-04-18T11:25:45.412Z,14.58
2023-04-18T11:28:30.332Z,14.68
2023-04-18T11:31:15.156Z,14.81
2023-04-18T11:34:00.056Z,14.50
2023-04-18T11:36:44.913Z,14.43
2023-04-18T11:39:29.921Z,14.37
2023-04-18T11:42:14.748Z,14.20
2023-04-18T11:44:59.830Z,14.46
2023-04-18T11:47:44.850Z,14.75
2023-04-18T11:50:29.803Z,14.73
2023-04-18T11:53:14.732Z,14.55
2023-04-18T11:55:59.588Z,14.99
2023-04-18T11:58:44.560Z,15.02
2023-04-18T12:01:29.489Z,14.92
2023-04-18T12:04:14.816Z,14.94
2023-04-18T12:07:00.003Z,14.98
2023-04-18T12:09:44.757Z,14.44
2023-04-18T12:12:29.824Z,14.79
2023-04-18T12:15:14.546Z,14.81
2023-04-18T12:17:59.735Z,14.97
2023-04-18T12:20:44.404Z,15.00
2023-04-18T12:23:29.380Z,15.02
2023-04-18T12:26:14.302Z,15.42
2023-04-18T12:28:59.361Z,15.33
2023-04-18T12:31:44.304Z,15.28
2023-04-18T12:34:29.375Z,15.32
2023-04-18T12:37:14.467Z,15.47
2023-04-18T12:39:59.235Z,15.43
2023-04-18T12:42:44.352Z,15.63
2023-04-18T12:45:29.290Z,15.65
2023-04-18T12:48:14.337Z,15.88
2023-04-18T12:50:59.281Z,15.91
2023-04-18T12:53:44.396Z,15.79
2023-04-18T12:56:29.591Z,16.04
2023-04-18T12:59:14.857Z,15.20
2023-04-18T13:02:00.040Z,15.63
2023-04-18T13:04:45.240Z,15.41
2023-04-18T13:07:30.364Z,15.60
2023-04-18T13:10:15.291Z,15.64
2023-04-18T13:13:00.344Z,15.46
2023-04-18T13:15:45.519Z,15.40
2023-04-18T13:18:30.419Z,15.37
2023-04-18T13:21:15.569Z,15.58
2023-04-18T13:24:00.376Z,15.96
2023-04-18T13:26:45.104Z,16.30
2023-04-18T13:29:29.937Z,16.18
2023-04-18T13:32:15.099Z,16.14
2023-04-18T13:34:59.889Z,15.87
2023-04-18T13:37:44.871Z,16.32
2023-04-18T13:40:29.786Z,16.46
2023-04-18T13:43:15.905Z,16.36
2023-04-18T13:46:00.852Z,16.62
2023-04-18T13:48:45.693Z,16.22
2023-04-18T13:51:30.828Z,16.09
2023-04-18T13:54:15.819Z,16.47
2023-04-18T13:57:00.750Z,16.29
2023-04-18T13:59:45.889Z,16.48
2023-04-18T14:02:30.850Z,16.18
2023-04-18T14:05:15.840Z,15.85
2023-04-18T14:08:00.863Z,16.11
2023-04-18T14:10:45.814Z,16.24
2023-04-18T14:13:30.408Z,16.42
2023-04-18T14:16:15.542Z,16.25
2023-04-18T14:19:00.514Z,15.96
2023-04-18T14:21:45.547Z,16.45
2023-04-18T14:24:30.644Z,16.31
2023-04-18T14:27:15.469Z,16.04
2023-04-18T14:30:00.433Z,16.32
2023-04-18T14:32:45.088Z,16.00
2023-04-18T14:35:30.020Z,16.32
2023-04-18T14:38:14.966Z,16.13
2023-04-18T14:40:59.845Z,15.94
2023-04-18T14:43:44.877Z,15.93
2023-04-18T14:46:29.919Z,16.16
2023-04-18T14:49:15.119Z,16.09
2023-04-18T14:52:00.281Z,16.31
2023-04-18T14:54:45.315Z,16.39
2023-04-18T14:57:30.236Z,16.40
2023-04-18T15:00:15.075Z,16.36
2023-04-18T15:03:00.181Z,16.13
2023-04-18T15:05:45.001Z,16.23
2023-04-18T15:08:31.344Z,15.97
2023-04-18T15:11:17.291Z,15.92
2023-04-18T15:14:02.192Z,16.27
2023-04-18T15:16:47.233Z,16.11
2023-04-18T15:19:32.122Z,16.27
2023-04-18T15:22:17.039Z,16.05
2023-04-18T15:25:01.951Z,16.15
2023-04-18T15:27:47.095Z,16.44
2023-04-18T15:30:31.942Z,16.02
2023-04-18T15:33:16.928Z,15.96
2023-04-18T15:36:01.899Z,15.90
2023-04-18T15:38:46.889Z,16.01
2023-04-18T15:41:31.786Z,15.83
2023-04-18T15:44:16.720Z,15.62
2023-04-18T15:47:01.959Z,15.81
2023-04-18T15:49:46.803Z,15.69
2023-04-18T15:52:31.770Z,15.39
2023-04-18T15:55:16.709Z,15.50
2023-04-18T15:58:01.770Z,15.22
2023-04-18T16:00:46.598Z,15.39
2023-04-18T16:03:31.888Z,15.39
2023-04-18T16:06:16.967Z,15.51
2023-04-18T16:09:01.959Z,15.29
2023-04-18T16:11:47.033Z,15.57
2023-04-18T16:14:31.842Z,15.44
2023-04-18T16:17:16.828Z,15.53
2023-04-18T16:20:01.757Z,15.75
2023-04-18T16:22:46.644Z,15.38
2023-04-18T16:25:31.510Z,15.41
2023-04-18T16:28:16.413Z,15.53
2023-04-18T16:31:01.384Z,15.38
2023-04-18T16:33:46.387Z,15.39
2023-04-18T16:36:31.442Z,15.38
2023-04-18T16:39:16.369Z,15.45
2023-04-18T16:42:01.310Z,15.40
2023-04-18T16:44:46.217Z,15.24
2023-04-18T16:47:31.294Z,15.20
2023-04-18T16:50:16.250Z,15.12
2023-04-18T16:53:01.200Z,15.01
2023-04-18T16:55:47.652Z,15.17
2023-04-18T16:58:32.513Z,15.09
2023-04-18T17:01:17.436Z,15.08
2023-04-18T17:04:03.094Z,15.04
2023-04-18T17:06:48.595Z,15.01
2023-04-18T17:09:34.511Z,14.94
2023-04-18T17:12:19.295Z,14.93
2023-04-18T17:15:04.216Z,14.96
2023-04-18T17:17:49.109Z,14.81
2023-04-18T17:20:34.048Z,14.80
2023-04-18T17:23:18.851Z,14.78
2023-04-18T17:26:03.813Z,14.76
2023-04-18T17:28:48.564Z,14.67
2023-04-18T17:31:33.629Z,14.63
2023-04-18T17:34:18.629Z,14.64
2023-04-18T17:37:03.547Z,14.60
2023-04-18T17:39:48.614Z,14.68
2023-04-18T17:42:33.527Z,14.62
2023-04-18T17:45:18.464Z,14.63
2023-04-18T17:48:03.383Z,14.64
2023-04-18T17:50:48.342Z,14.61
2023-04-18T17:53:33.337Z,14.58
2023-04-18T17:56:18.304Z,14.42
2023-04-18T17:59:03.258Z,14.50
2023-04-18T18:01:48.218Z,14.46
2023-04-18T18:04:33.420Z,14.39
2023-04-18T18:07:18.155Z,14.35
2023-04-18T18:10:03.228Z,14.27
2023-04-18T18:12:48.044Z,14.16
2023-04-18T18:15:32.958Z,14.11
2023-04-18T18:18:17.798Z,14.05
2023-04-18T18:21:02.793Z,13.90
2023-04-18T18:23:47.771Z,13.80
2023-04-18T18:26:32.527Z,13.70
2023-04-18T18:29:19.877Z,13.61
2023-04-18T18:32:04.728Z,13.52
2023-04-18T18:34:49.805Z,13.42
2023-04-18T18:37:34.874Z,13.32
2023-04-18T18:40:19.773Z,13.23
2023-04-18T18:43:04.778Z,13.10
2023-04-18T18:45:49.839Z,13.03
2023-04-18T18:48:34.692Z,12.91
2023-04-18T18:51:19.673Z,12.80
2023-04-18T18:54:04.628Z,12.71
2023-04-18T18:56:49.609Z,12.58
2023-04-18T18:59:34.608Z,12.44
2023-04-18T19:02:19.911Z,12.38
2023-04-18T19:05:04.588Z,12.39
2023-04-18T19:07:49.658Z,12.31
2023-04-18T19:10:34.658Z,12.30
2023-04-18T19:13:19.876Z,12.33
2023-04-18T19:16:04.760Z,12.25
2023-04-18T19:24:55.289Z,12.01
2023-04-18T19:27:40.169Z,11.93
2023-04-18T19:30:25.062Z,11.87
2023-04-18T19:33:10.046Z,11.87
2023-04-18T19:35:55.102Z,11.73
2023-04-18T19:38:40.003Z,11.73
2023-04-18T19:41:24.985Z,11.70
2023-04-18T19:44:09.886Z,11.61
2023-04-18T19:46:54.770Z,11.52
2023-04-18T19:49:39.721Z,11.38
2023-04-18T19:52:24.780Z,11.32
2023-04-18T19:55:09.617Z,11.26
2023-04-18T19:57:54.626Z,11.22
2023-04-18T20:00:39.724Z,11.24
2023-04-18T20:03:24.878Z,11.22
2023-04-18T20:06:09.642Z,11.23
2023-04-18T20:08:54.463Z,11.12
2023-04-18T20:11:39.391Z,11.15
2023-04-18T20:14:24.269Z,11.08
2023-04-18T20:17:09.308Z,11.09
2023-04-18T20:19:54.265Z,11.07
2023-04-18T20:22:39.171Z,11.03
2023-04-18T20:25:24.102Z,10.99
2023-04-18T20:28:08.987Z,11.00
2023-04-18T20:30:53.929Z,11.01
2023-04-18T20:33:38.709Z,10.84
2023-04-18T20:36:23.772Z,10.83
2023-04-18T20:39:08.913Z,10.76
2023-04-18T20:41:53.874Z,10.74
2023-04-18T20:44:38.804Z,10.72
2023-04-18T20:47:23.869Z,10.59
2023-04-18T20:50:08.833Z,10.60
2023-04-18T20:52:53.828Z,10.61
2023-04-18T20:55:38.726Z,10.54
2023-04-18T20:58:25.447Z,10.51
2023-04-18T21:01:10.381Z,10.33
2023-04-18T21:03:55.655Z,10.30
2023-04-18T21:06:40.862Z,10.25
2023-04-18T21:09:26.026Z,10.22
2023-04-18T21:12:10.868Z,10.25
2023-04-18T21:14:55.704Z,10.14
2023-04-18T21:17:40.796Z,10.04
2023-04-18T21:20:25.814Z,10.03
2023-04-18T21:23:10.821Z,9.99
2023-04-18T21:25:55.675Z,9.97
2023-04-18T21:28:40.720Z,9.98
2023-04-18T21:31:25.780Z,9.97
2023-04-18T21:34:10.785Z,9.94
2023-04-18T21:36:55.622Z,9.91
2023-04-18T21:39:40.656Z,9.90
2023-04-18T21:42:25.641Z,9.81
2023-04-18T21:45:10.718Z,9.77
2023-04-18T21:47:55.733Z,9.75
2023-04-18T21:50:40.498Z,9.69
2023-04-18T21:53:25.584Z,9.69
2023-04-18T21:56:10.373Z,9.71
2023-04-18T21:58:55.518Z,9.67
2023-04-18T22:01:40.515Z,9.66
2023-04-18T22:04:25.332Z,9.69
2023-04-18T22:07:10.333Z,9.64
2023-04-18T22:09:55.296Z,9.60
2023-04-18T22:12:40.195Z,9.55
2023-04-18T22:15:25.131Z,9.46
2023-04-18T22:18:10.309Z,9.47
2023-04-18T22:20:55.271Z,9.44
2023-04-18T22:23:40.591Z,9.44
2023-04-18T22:26:25.548Z,9.50
2023-04-18T22:29:10.492Z,9.35
2023-04-18T22:31:55.487Z,9.35
2023-04-18T22:34:40.501Z,9.42
2023-04-18T22:37:25.459Z,9.35
2023-04-18T22:40:10.371Z,9.24
2023-04-18T22:42:55.315Z,9.16
2023-04-18T22:45:40.132Z,9.17
2023-04-18T22:48:25.159Z,9.16
2023-04-18T22:51:09.936Z,9.18
2023-04-18T22:53:54.985Z,9.14
2023-04-18T22:56:39.880Z,9.14
2023-04-18T22:59:24.863Z,9.07
2023-04-18T23:02:10.027Z,9.11
2023-04-18T23:04:55.508Z,9.08
2023-04-18T23:07:40.518Z,9.03
2023-04-18T23:10:25.375Z,8.99
2023-04-18T23:13:10.349Z,8.92
2023-04-18T23:15:55.303Z,8.94
2023-04-18T23:18:40.232Z,8.91
2023-04-18T23:21:25.192Z,8.86
2023-04-18T23:24:10.012Z,8.85
2023-04-18T23:26:55.037Z,8.84
2023-04-18T23:29:39.949Z,8.79
2023-04-18T23:32:24.954Z,8.83
2023-04-18T23:35:09.816Z,8.83
2023-04-18T23:37:54.740Z,8.78
2023-04-18T23:40:39.674Z,8.75
2023-04-18T23:43:24.603Z,8.77
2023-04-18T23:46:09.583Z,8.69
2023-04-18T23:48:54.575Z,8.69
2023-04-18T23:51:39.704Z,8.63
2023-04-18T23:54:24.629Z,8.63
2023-04-18T23:57:09.575Z,8.60
2023-04-18T23:59:54.553Z,8.63
